»·PEaware :: WAT1699 KSAN-KLAS

WAT1699 :: KSAN-KLAS

FLIGHT INFORMATION

Flight Status: Arrived
Operator:
Walker Air Transport
More flights by this operator :: More flights under this callsign
Pilot: Marty P. (27464)
Aircraft: BOEING 737-800
(B738)
More flights by this aircraft type
Origin: KSAN San Diego Intl-Lindbergh
United States
Destination: KLAS McCarran Intl
United States
More flights between these airports :: More routes between these airports
Route: PADRZ2 CHKNN SEBBY YELAH MISEN KEPEC6
File this flight plan on PilotEdge
Remarks:
Altitude:
(Current/Filed)
31,000ft
Speed:
(Current/Filed)
480kts
Departed: 25-Aug-20 05:27 PM
Arrived: 25-Aug-20 06:18 PM
Distance/Time
Traveled:
225nm/0:51
Distance/Time
To Go:
Arrived

Flight Plot

Page will automatically refresh every two minutes.

Flight plan parsing failed; only flown route is shown


Map Options




Map Legend


Flown Route
Filed Route
Departure Airport
Arrival Airport
Navaid (VOR, NDB)
Fix

Horizontal Profiles

Position Reports

Time Latitude Longitude Heading Altitude Ground
Speed
25-Aug-20 16:37 32.733882 -117.204700 86 27ft 0kts
25-Aug-20 16:38 32.733882 -117.204700 86 27ft 0kts
25-Aug-20 16:39 32.733882 -117.204700 86 27ft 0kts
25-Aug-20 16:40 32.733882 -117.204700 86 27ft 0kts
25-Aug-20 16:41 32.733882 -117.204700 86 27ft 0kts
25-Aug-20 16:42 32.733882 -117.204700 86 27ft 0kts
25-Aug-20 16:43 32.733882 -117.204700 86 27ft 0kts
25-Aug-20 16:44 32.733882 -117.204700 86 27ft 0kts
25-Aug-20 16:45 32.733882 -117.204700 86 27ft 0kts
25-Aug-20 16:46 32.733882 -117.204700 86 27ft 0kts
25-Aug-20 16:47 32.733882 -117.204700 86 27ft 0kts
25-Aug-20 16:48 32.733882 -117.204700 86 27ft 0kts
25-Aug-20 16:49 32.733882 -117.204700 86 27ft 0kts
25-Aug-20 16:50 32.733882 -117.204700 86 27ft 0kts
25-Aug-20 16:51 32.733882 -117.204700 86 27ft 0kts
25-Aug-20 16:52 32.733882 -117.204700 86 27ft 0kts
25-Aug-20 16:53 32.733882 -117.204700 86 27ft 0kts
25-Aug-20 16:54 32.733882 -117.204700 86 27ft 0kts
25-Aug-20 16:55 32.733882 -117.204700 86 27ft 0kts
25-Aug-20 16:56 32.733882 -117.204700 86 27ft 0kts
25-Aug-20 16:57 32.733882 -117.204700 86 27ft 0kts
25-Aug-20 16:58 32.733882 -117.204700 86 27ft 0kts
25-Aug-20 16:59 32.733882 -117.204700 86 27ft 0kts
25-Aug-20 17:00 32.733882 -117.204700 86 27ft 0kts
25-Aug-20 17:01 32.733882 -117.204700 86 27ft 0kts
25-Aug-20 17:02 32.733882 -117.204700 86 27ft 0kts
25-Aug-20 17:03 32.733882 -117.204700 86 27ft 0kts
25-Aug-20 17:04 32.733882 -117.204700 86 27ft 0kts
25-Aug-20 17:05 32.733882 -117.204700 86 27ft 0kts
25-Aug-20 17:06 32.733882 -117.204700 86 27ft 0kts
25-Aug-20 17:07 32.733882 -117.204700 86 27ft 0kts
25-Aug-20 17:08 32.733882 -117.204700 86 27ft 0kts
25-Aug-20 17:09 32.733882 -117.204700 86 27ft 0kts
25-Aug-20 17:10 32.733882 -117.204700 86 27ft 0kts
25-Aug-20 17:11 32.733882 -117.204700 86 27ft 0kts
25-Aug-20 17:12 32.733882 -117.204700 86 27ft 0kts
25-Aug-20 17:13 32.733854 -117.205258 87 27ft 1kts
25-Aug-20 17:14 32.733584 -117.205603 5 27ft 2kts
25-Aug-20 17:15 32.735062 -117.205201 51 27ft 3kts
25-Aug-20 17:16 32.735375 -117.204759 50 27ft 0kts
25-Aug-20 17:17 32.735375 -117.204759 50 27ft 0kts
25-Aug-20 17:18 32.735377 -117.204757 50 27ft 0kts
25-Aug-20 17:19 32.735331 -117.201202 106 27ft 17kts
25-Aug-20 17:20 32.733815 -117.194951 106 27ft 18kts
25-Aug-20 17:21 32.732510 -117.189574 106 27ft 14kts
25-Aug-20 17:22 32.731298 -117.184565 106 27ft 14kts
25-Aug-20 17:23 32.730299 -117.180463 106 27ft 15kts
25-Aug-20 17:24 32.729540 -117.176819 77 27ft 0kts
25-Aug-20 17:25 32.730373 -117.176636 294 27ft 18kts
25-Aug-20 17:26 32.739586 -117.214956 287 1112ft 184kts
25-Aug-20 17:27 32.771775 -117.275313 307 3603ft 246kts
25-Aug-20 17:28 32.814758 -117.341894 306 7023ft 265kts
25-Aug-20 17:29 32.860818 -117.413257 305 10336ft 286kts
25-Aug-20 17:30 32.917764 -117.501793 305 11436ft 386kts
25-Aug-20 17:31 32.984862 -117.606747 305 14467ft 406kts
25-Aug-20 17:32 33.058240 -117.719651 310 14965ft 429kts
25-Aug-20 17:33 33.143990 -117.810973 317 15874ft 417kts
25-Aug-20 17:34 33.233901 -117.901247 318 18283ft 430kts
25-Aug-20 17:35 33.324928 -117.989765 317 21368ft 422kts
25-Aug-20 17:36 33.417120 -118.079910 317 23131ft 442kts
25-Aug-20 17:37 33.515955 -118.176808 318 24312ft 468kts
25-Aug-20 17:38 33.628950 -118.259492 330 25913ft 483kts
25-Aug-20 17:39 33.756106 -118.299963 14 27805ft 492kts
25-Aug-20 17:40 33.850072 -118.187681 57 29516ft 489kts
25-Aug-20 17:41 33.927186 -118.054294 56 30855ft 493kts
25-Aug-20 17:42 34.008012 -117.916839 55 30866ft 513kts
25-Aug-20 17:43 34.092260 -117.775513 52 30893ft 526kts
25-Aug-20 17:44 34.185050 -117.638177 51 30890ft 533kts
25-Aug-20 17:45 34.279770 -117.499227 51 30900ft 537kts
25-Aug-20 17:46 34.374853 -117.359493 51 30927ft 538kts
25-Aug-20 17:47 34.469548 -117.219912 51 30921ft 539kts
25-Aug-20 17:48 34.561572 -117.083743 51 30941ft 513kts
25-Aug-20 17:49 34.651991 -116.949371 51 30882ft 506kts
25-Aug-20 17:50 34.739323 -116.819106 51 30855ft 499kts
25-Aug-20 17:51 34.827137 -116.688832 48 30233ft 494kts
25-Aug-20 17:52 34.926451 -116.576178 39 27345ft 481kts
25-Aug-20 17:53 35.028595 -116.476138 38 24708ft 465kts
25-Aug-20 17:54 35.124017 -116.375790 45 22377ft 450kts
25-Aug-20 17:55 35.210065 -116.268880 46 19846ft 435kts
25-Aug-20 17:56 35.293275 -116.164675 46 17368ft 421kts
25-Aug-20 17:57 35.373025 -116.064307 46 15019ft 405kts
25-Aug-20 17:58 35.450208 -115.966832 45 13042ft 384kts
25-Aug-20 17:59 35.528399 -115.867844 45 13049ft 419kts
25-Aug-20 18:00 35.608477 -115.766156 45 13048ft 396kts
25-Aug-20 18:01 35.677244 -115.678369 45 13058ft 329kts
25-Aug-20 18:02 35.743598 -115.600741 30 13053ft 331kts
25-Aug-20 18:03 35.830770 -115.571447 0 13057ft 327kts
25-Aug-20 18:04 35.921238 -115.565795 6 13030ft 327kts
25-Aug-20 18:05 35.990852 -115.500724 64 12378ft 325kts
25-Aug-20 18:06 36.023393 -115.398483 74 11174ft 299kts
25-Aug-20 18:07 36.025805 -115.299164 97 10344ft 292kts
25-Aug-20 18:08 36.018369 -115.199362 97 9025ft 292kts
25-Aug-20 18:10 36.011645 -115.100435 97 7819ft 287kts
25-Aug-20 18:11 36.005901 -115.006532 96 6595ft 261kts
25-Aug-20 18:12 36.003626 -114.920968 69 5506ft 233kts
25-Aug-20 18:13 36.053627 -114.916705 322 5516ft 199kts
25-Aug-20 18:14 36.074702 -114.969125 261 4923ft 189kts
25-Aug-20 18:15 36.073639 -115.027328 266 3767ft 146kts
25-Aug-20 18:16 36.073621 -115.078624 268 2975ft 150kts
25-Aug-20 18:17 36.073647 -115.129647 268 2196ft 143kts
25-Aug-20 18:18 36.074755 -115.145960 299 2191ft 2kts
25-Aug-20 18:19 36.076612 -115.146550 359 2191ft 20kts
25-Aug-20 18:20 36.080186 -115.147651 71 2191ft 1kts
25-Aug-20 18:21 36.080315 -115.147307 66 2191ft 0kts
25-Aug-20 18:22 36.080315 -115.147307 66 2191ft 0kts
25-Aug-20 18:23 36.080315 -115.147307 66 2191ft 0kts
25-Aug-20 18:24 36.080315 -115.147307 66 2191ft 0kts
25-Aug-20 18:25 36.080315 -115.147307 66 2191ft 0kts
25-Aug-20 18:25 36.080315 -115.147307 66 2191ft 0kts
25-Aug-20 18:27 36.080315 -115.147307 66 2191ft 0kts
25-Aug-20 18:28 36.080315 -115.147307 66 2191ft 0kts
25-Aug-20 18:28 36.080315 -115.147307 66 2191ft 0kts
25-Aug-20 18:30 36.080315 -115.147307 66 2191ft 0kts

Navigation Log

Ident Type
Flight plan parsing failed, navigation log unavailable